createdAt,value
2022-10-11T00:01:58.810Z,82.30
2022-10-11T00:04:29.443Z,82.50
2022-10-11T00:06:58.561Z,82.60
2022-10-11T00:09:26.492Z,82.70
2022-10-11T00:11:55.608Z,82.70
2022-10-11T00:14:23.648Z,82.70
2022-10-11T00:16:53.067Z,82.60
2022-10-11T00:19:21.037Z,82.60
2022-10-11T00:21:48.915Z,82.60
2022-10-11T00:24:17.065Z,82.70
2022-10-11T00:26:46.967Z,82.70
2022-10-11T00:29:15.380Z,82.70
2022-10-11T00:31:43.216Z,82.70
2022-10-11T00:34:13.274Z,82.60
2022-10-11T00:36:41.090Z,82.50
2022-10-11T00:39:08.927Z,82.40
2022-10-11T00:41:36.846Z,82.30
2022-10-11T00:44:15.612Z,82.30
2022-10-11T00:46:44.357Z,82.60
2022-10-11T00:49:20.384Z,82.60
2022-10-11T00:51:50.561Z,82.60
2022-10-11T00:54:19.232Z,82.60
2022-10-11T00:56:49.253Z,82.70
2022-10-11T00:59:19.296Z,82.90
2022-10-11T01:01:47.256Z,83.10
2022-10-11T01:04:15.186Z,83.30
2022-10-11T01:06:44.906Z,83.20
2022-10-11T01:09:13.313Z,83.20
2022-10-11T01:11:42.236Z,83.30
2022-10-11T01:14:15.663Z,83.30
2022-10-11T01:16:46.750Z,83.20
2022-10-11T01:19:19.906Z,83.10
2022-10-11T01:21:50.327Z,82.90
2022-10-11T01:24:29.301Z,82.60
2022-10-11T01:27:06.926Z,82.50
2022-10-11T01:29:42.725Z,82.40
2022-10-11T01:32:15.195Z,82.50
2022-10-11T01:34:48.521Z,82.70
2022-10-11T01:37:20.412Z,82.70
2022-10-11T01:39:49.547Z,82.90
2022-10-11T01:42:19.328Z,83.00
2022-10-11T01:44:48.661Z,82.90
2022-10-11T01:47:21.390Z,82.90
2022-10-11T01:49:53.962Z,82.80
2022-10-11T01:52:22.327Z,82.80
2022-10-11T01:55:09.736Z,82.80
2022-10-11T01:57:52.945Z,82.70
2022-10-11T02:00:21.662Z,82.50
2022-10-11T02:03:05.315Z,82.40
2022-10-11T02:05:36.940Z,82.30
2022-10-11T02:08:07.905Z,82.40
2022-10-11T02:10:37.097Z,82.50
2022-10-11T02:13:08.487Z,82.50
2022-10-11T02:15:37.816Z,82.50
2022-10-11T02:18:08.245Z,82.20
2022-10-11T02:20:38.452Z,82.20
2022-10-11T02:23:09.117Z,82.20
2022-10-11T02:25:38.111Z,81.90
2022-10-11T02:28:13.718Z,81.80
2022-10-11T02:30:42.129Z,82.10
2022-10-11T02:33:13.536Z,82.00
2022-10-11T02:35:43.443Z,81.90
2022-10-11T02:38:15.166Z,82.00
2022-10-11T02:40:45.715Z,82.00
2022-10-11T02:43:17.475Z,82.00
2022-10-11T02:45:47.616Z,81.90
2022-10-11T02:48:16.902Z,81.90
2022-10-11T02:50:44.932Z,81.90
2022-10-11T02:53:12.989Z,81.90
2022-10-11T02:55:40.755Z,81.90
2022-10-11T02:58:08.566Z,82.10
2022-10-11T03:00:36.389Z,82.10
2022-10-11T03:03:04.349Z,82.00
2022-10-11T03:05:40.612Z,82.00
2022-10-11T03:08:08.858Z,82.20
2022-10-11T03:10:36.985Z,82.10
2022-10-11T03:13:05.268Z,82.20
2022-10-11T03:15:33.099Z,82.20
2022-10-11T03:18:00.920Z,82.30
2022-10-11T03:20:28.715Z,82.30
2022-10-11T03:22:57.895Z,82.30
2022-10-11T03:25:25.764Z,82.30
2022-10-11T03:27:53.589Z,82.40
2022-10-11T03:30:21.416Z,82.40
2022-10-11T03:32:49.352Z,82.60
2022-10-11T03:35:17.800Z,82.60
2022-10-11T03:37:45.699Z,82.60
2022-10-11T03:40:15.102Z,82.60
2022-10-11T03:42:42.972Z,82.50
2022-10-11T03:45:11.428Z,82.30
2022-10-11T03:47:40.077Z,82.10
2022-10-11T03:50:08.494Z,82.20
2022-10-11T03:52:36.684Z,82.10
2022-10-11T03:55:04.883Z,82.00
2022-10-11T03:57:34.193Z,81.80
2022-10-11T04:00:01.995Z,81.80
2022-10-11T04:02:36.965Z,81.70
2022-10-11T04:05:07.209Z,81.70
2022-10-11T04:07:35.052Z,81.70
2022-10-11T04:10:02.874Z,81.70
2022-10-11T04:12:30.693Z,81.70
2022-10-11T04:14:59.952Z,81.60
2022-10-11T04:17:27.769Z,81.70
2022-10-11T04:19:55.561Z,81.70
2022-10-11T04:22:23.384Z,81.70
2022-10-11T04:24:51.572Z,81.80
2022-10-11T04:27:19.426Z,81.90
2022-10-11T04:29:47.265Z,82.10
2022-10-11T04:32:16.557Z,82.10
2022-10-11T04:34:44.347Z,82.10
2022-10-11T04:37:12.214Z,82.10
2022-10-11T04:39:40.072Z,82.20
2022-10-11T04:42:07.890Z,82.30
2022-10-11T04:44:35.771Z,82.30
2022-10-11T04:47:03.645Z,82.30
2022-10-11T04:49:32.831Z,82.30
2022-10-11T04:52:00.705Z,82.40
2022-10-11T04:54:28.655Z,82.40
2022-10-11T04:56:56.496Z,82.50
2022-10-11T04:59:24.337Z,82.50
2022-10-11T05:01:52.170Z,82.50
2022-10-11T05:04:20.041Z,82.60
2022-10-11T05:06:49.224Z,82.60
2022-10-11T05:09:17.052Z,82.80
2022-10-11T05:11:44.879Z,82.80
2022-10-11T05:14:12.784Z,82.80
2022-10-11T05:16:40.596Z,82.80
2022-10-11T05:19:08.595Z,82.70
2022-10-11T05:21:36.549Z,82.80
2022-10-11T05:24:08.315Z,82.90
2022-10-11T05:26:36.581Z,83.00
2022-10-11T05:29:04.468Z,83.20
2022-10-11T05:31:32.523Z,83.20
2022-10-11T05:34:00.906Z,83.20
2022-10-11T05:36:28.750Z,83.30
2022-10-11T05:38:56.515Z,83.30
2022-10-11T05:41:25.663Z,83.30
2022-10-11T05:43:53.507Z,83.30
2022-10-11T05:46:21.424Z,83.30
2022-10-11T05:48:49.256Z,83.30
2022-10-11T05:51:17.145Z,83.40
2022-10-11T05:53:44.945Z,83.40
2022-10-11T05:56:20.262Z,83.40
2022-10-11T05:58:49.472Z,83.50
2022-10-11T06:01:18.874Z,83.50
2022-10-11T06:03:46.860Z,83.40
2022-10-11T06:06:14.691Z,83.40
2022-10-11T06:08:42.650Z,83.40
2022-10-11T06:11:12.209Z,83.50
2022-10-11T06:13:40.637Z,83.70
2022-10-11T06:16:09.941Z,83.50
2022-10-11T06:18:37.803Z,83.30
2022-10-11T06:21:05.799Z,82.70
2022-10-11T06:23:33.835Z,82.20
2022-10-11T06:26:03.010Z,81.80
2022-10-11T06:28:31.181Z,81.00
2022-10-11T06:30:59.080Z,80.10
2022-10-11T06:33:28.338Z,79.00
2022-10-11T06:36:00.620Z,78.40
2022-10-11T06:38:28.614Z,77.10
2022-10-11T06:40:56.409Z,76.70
2022-10-11T06:43:25.267Z,76.30
2022-10-11T06:45:53.169Z,75.30
2022-10-11T06:48:21.588Z,74.60
2022-10-11T06:51:00.862Z,75.10
2022-10-11T06:53:29.126Z,74.00
2022-10-11T06:56:02.922Z,73.80
2022-10-11T06:58:31.220Z,73.40
2022-10-11T07:01:03.464Z,73.30
2022-10-11T07:03:31.495Z,72.30
2022-10-11T07:06:03.004Z,71.40
2022-10-11T07:08:31.166Z,71.20
2022-10-11T07:11:02.614Z,71.10
2022-10-11T07:13:30.849Z,70.30
2022-10-11T07:16:01.129Z,69.70
2022-10-11T07:18:29.041Z,70.00
2022-10-11T07:20:57.026Z,69.20
2022-10-11T07:23:31.621Z,69.40
2022-10-11T07:25:59.583Z,68.80
2022-10-11T07:28:28.827Z,67.70
2022-10-11T07:30:57.905Z,66.70
2022-10-11T07:33:26.589Z,66.70
2022-10-11T07:36:02.968Z,67.10
2022-10-11T07:38:32.603Z,66.60
2022-10-11T07:41:00.616Z,65.40
2022-10-11T07:43:28.495Z,64.20
2022-10-11T07:45:56.981Z,64.40
2022-10-11T07:48:24.846Z,64.50
2022-10-11T07:50:52.787Z,63.80
2022-10-11T07:53:20.825Z,64.90
2022-10-11T07:55:50.017Z,63.90
2022-10-11T07:58:17.813Z,63.50
2022-10-11T08:00:45.820Z,63.00
2022-10-11T08:03:14.065Z,61.70
2022-10-11T08:05:41.947Z,59.20
2022-10-11T08:08:09.795Z,56.60
2022-10-11T08:10:38.107Z,55.90
2022-10-11T08:13:08.280Z,54.80
2022-10-11T08:15:36.019Z,53.70
2022-10-11T08:18:03.952Z,52.70
2022-10-11T08:20:33.128Z,51.40
2022-10-11T08:23:01.073Z,49.10
2022-10-11T08:25:29.039Z,50.90
2022-10-11T08:27:56.921Z,51.30
2022-10-11T08:30:26.190Z,50.80
2022-10-11T08:32:54.057Z,52.20
2022-10-11T08:35:22.217Z,49.80
2022-10-11T08:37:50.409Z,49.70
2022-10-11T08:40:19.304Z,50.20
2022-10-11T08:42:49.072Z,50.10
2022-10-11T08:45:25.524Z,50.90
2022-10-11T08:47:59.910Z,49.80
2022-10-11T08:50:27.838Z,50.00
2022-10-11T08:52:58.136Z,50.00
2022-10-11T08:55:30.167Z,47.70
2022-10-11T08:57:58.435Z,47.00
2022-10-11T09:00:29.691Z,46.80
2022-10-11T09:03:09.860Z,44.50
2022-10-11T09:05:51.803Z,45.00
2022-10-11T09:08:22.495Z,43.90
2022-10-11T09:10:58.241Z,44.60
2022-10-11T09:13:41.478Z,43.00
2022-10-11T09:16:14.965Z,43.40
2022-10-11T09:18:51.991Z,43.50
2022-10-11T09:21:23.536Z,42.50
2022-10-11T09:24:05.832Z,44.60
2022-10-11T09:26:36.971Z,43.60
2022-10-11T09:29:09.595Z,44.20
2022-10-11T09:31:37.445Z,46.10
2022-10-11T09:34:12.662Z,44.60
2022-10-11T09:36:42.569Z,43.30
2022-10-11T09:39:17.730Z,42.10
2022-10-11T09:41:50.158Z,40.80
2022-10-11T09:44:22.253Z,40.40
2022-10-11T09:46:50.721Z,39.70
2022-10-11T09:49:21.067Z,40.00
2022-10-11T09:51:52.347Z,39.50
2022-10-11T09:54:20.640Z,40.70
2022-10-11T09:56:48.757Z,40.00
2022-10-11T09:59:27.235Z,40.20
2022-10-11T10:02:13.646Z,41.10
2022-10-11T10:04:54.937Z,40.20
2022-10-11T10:07:23.143Z,40.10
2022-10-11T10:09:51.323Z,40.70
2022-10-11T10:12:21.538Z,38.70
2022-10-11T10:14:55.991Z,38.60
2022-10-11T10:17:23.871Z,39.00
2022-10-11T10:19:54.361Z,37.90
2022-10-11T10:22:23.271Z,36.80
2022-10-11T10:24:52.048Z,36.60
2022-10-11T10:27:22.095Z,36.30
2022-10-11T10:30:08.976Z,36.60
2022-10-11T10:32:43.885Z,37.20
2022-10-11T10:35:20.365Z,37.50
2022-10-11T10:37:52.141Z,36.90
2022-10-11T10:40:22.562Z,37.50
2022-10-11T10:42:50.830Z,37.70
2022-10-11T10:45:21.873Z,38.70
2022-10-11T10:48:04.838Z,38.90
2022-10-11T10:50:42.150Z,39.40
2022-10-11T10:53:18.790Z,38.70
2022-10-11T10:55:50.699Z,37.70
2022-10-11T10:58:26.220Z,36.90
2022-10-11T11:00:57.763Z,36.60
2022-10-11T11:03:28.885Z,35.50
2022-10-11T11:06:02.113Z,34.60
2022-10-11T11:08:39.605Z,34.70
2022-10-11T11:11:09.827Z,34.70
2022-10-11T11:13:41.653Z,34.90
2022-10-11T11:16:13.576Z,33.60
2022-10-11T11:18:46.581Z,33.70
2022-10-11T11:21:21.734Z,33.50
2022-10-11T11:23:54.847Z,34.10
2022-10-11T11:26:26.454Z,33.00
2022-10-11T11:29:01.185Z,32.80
2022-10-11T11:31:38.528Z,32.40
2022-10-11T11:34:17.315Z,32.00
2022-10-11T11:36:47.859Z,31.60
2022-10-11T11:39:17.714Z,31.20
2022-10-11T11:41:47.063Z,32.10
2022-10-11T11:44:17.590Z,32.50
2022-10-11T11:46:47.160Z,32.70
2022-10-11T11:49:18.083Z,32.70
2022-10-11T11:51:47.609Z,33.00
2022-10-11T11:54:28.682Z,33.30
2022-10-11T11:57:00.125Z,33.30
2022-10-11T11:59:33.726Z,33.20
2022-10-11T12:02:15.908Z,33.10
2022-10-11T12:04:44.746Z,33.80
2022-10-11T12:07:16.690Z,33.00
2022-10-11T12:09:46.358Z,32.20
2022-10-11T12:12:27.734Z,32.30
2022-10-11T12:15:03.492Z,34.00
2022-10-11T12:17:32.286Z,35.20
2022-10-11T12:20:04.942Z,34.60
2022-10-11T12:22:42.695Z,35.30
2022-10-11T12:25:29.662Z,35.90
2022-10-11T12:27:58.482Z,36.70
2022-10-11T12:30:46.812Z,37.40
2022-10-11T12:33:16.237Z,37.90
2022-10-11T12:36:08.199Z,38.20
2022-10-11T12:38:39.942Z,38.50
2022-10-11T12:41:26.557Z,38.00
2022-10-11T12:44:15.062Z,37.80
2022-10-11T12:46:53.480Z,37.80
2022-10-11T12:49:25.694Z,38.00
2022-10-11T12:51:57.397Z,38.10
2022-10-11T12:54:40.190Z,37.50
2022-10-11T12:57:28.716Z,36.80
2022-10-11T13:00:08.332Z,36.10
2022-10-11T13:02:39.788Z,35.80
2022-10-11T13:05:09.234Z,35.10
2022-10-11T13:07:37.426Z,34.50
2022-10-11T13:10:06.087Z,35.10
2022-10-11T13:12:36.960Z,34.50
2022-10-11T13:15:09.781Z,35.10
2022-10-11T13:17:38.971Z,35.50
2022-10-11T13:20:08.194Z,35.10
2022-10-11T13:22:36.862Z,35.60
2022-10-11T13:25:05.939Z,35.70
2022-10-11T13:27:39.283Z,35.80
2022-10-11T13:30:12.355Z,35.70
2022-10-11T13:32:40.278Z,35.70
2022-10-11T13:35:14.634Z,35.60
2022-10-11T13:37:45.152Z,36.30
2022-10-11T13:40:15.116Z,36.30
2022-10-11T13:42:43.058Z,36.90
2022-10-11T13:45:13.883Z,36.30
2022-10-11T13:47:41.750Z,36.90
2022-10-11T13:50:11.917Z,36.20
2022-10-11T13:52:50.426Z,36.60
2022-10-11T13:55:24.068Z,36.30
2022-10-11T13:57:52.840Z,36.80
2022-10-11T14:00:26.701Z,37.50
2022-10-11T14:02:56.527Z,37.50
2022-10-11T14:05:26.593Z,37.10
2022-10-11T14:07:54.738Z,36.40
2022-10-11T14:10:23.337Z,35.30
2022-10-11T14:12:59.319Z,34.70
2022-10-11T14:15:30.873Z,33.70
2022-10-11T14:18:00.254Z,34.50
2022-10-11T14:20:36.057Z,34.40
2022-10-11T14:23:04.025Z,34.70
2022-10-11T14:25:32.038Z,35.20
2022-10-11T14:28:00.303Z,36.00
2022-10-11T14:30:31.394Z,36.30
2022-10-11T14:33:01.189Z,36.60
2022-10-11T14:35:30.592Z,37.00
2022-10-11T14:38:00.583Z,37.60
2022-10-11T14:40:30.096Z,38.20
2022-10-11T14:42:58.252Z,38.70
2022-10-11T14:45:26.357Z,39.20
2022-10-11T14:47:56.632Z,39.30
2022-10-11T14:50:29.495Z,39.60
2022-10-11T14:52:58.187Z,39.70
2022-10-11T14:55:26.944Z,40.10
2022-10-11T14:57:56.277Z,40.70
2022-10-11T15:00:25.188Z,41.10
2022-10-11T15:02:53.743Z,41.10
2022-10-11T15:05:23.560Z,41.80
2022-10-11T15:07:57.186Z,42.40
2022-10-11T15:10:26.654Z,43.40
2022-10-11T15:12:55.280Z,43.40
2022-10-11T15:15:24.197Z,43.70
2022-10-11T15:17:53.876Z,43.60
2022-10-11T15:20:31.606Z,43.90
2022-10-11T15:22:59.862Z,44.30
2022-10-11T15:25:28.893Z,43.70
2022-10-11T15:27:57.106Z,44.70
2022-10-11T15:30:26.075Z,45.30
2022-10-11T15:32:54.262Z,45.80
2022-10-11T15:35:22.874Z,46.40
2022-10-11T15:37:53.826Z,47.00
2022-10-11T15:40:23.039Z,47.50
2022-10-11T15:42:51.931Z,48.40
2022-10-11T15:45:21.641Z,49.00
2022-10-11T15:47:50.042Z,50.00
2022-10-11T15:50:24.645Z,51.00
2022-10-11T15:52:54.601Z,51.30
2022-10-11T15:55:22.744Z,52.20
2022-10-11T15:57:51.149Z,53.10
2022-10-11T16:00:22.227Z,53.30
2022-10-11T16:02:51.796Z,54.30
2022-10-11T16:05:20.473Z,54.70
2022-10-11T16:07:49.078Z,55.00
2022-10-11T16:10:19.307Z,55.30
2022-10-11T16:12:47.649Z,56.10
2022-10-11T16:15:15.645Z,56.60
2022-10-11T16:17:43.593Z,56.90
2022-10-11T16:20:11.457Z,57.60
2022-10-11T16:22:39.383Z,58.00
2022-10-11T16:25:07.443Z,58.70
2022-10-11T16:27:37.124Z,59.40
2022-10-11T16:30:05.579Z,60.10
2022-10-11T16:32:34.399Z,60.90
2022-10-11T16:35:02.788Z,61.40
2022-10-11T16:37:32.167Z,62.40
2022-10-11T16:40:00.440Z,63.00
2022-10-11T16:42:28.636Z,63.60
2022-10-11T16:44:58.770Z,64.60
2022-10-11T16:47:27.211Z,65.00
2022-10-11T16:49:55.549Z,65.50
2022-10-11T16:52:23.784Z,66.00
2022-10-11T16:54:53.088Z,66.30
2022-10-11T16:57:21.157Z,67.00
2022-10-11T16:59:49.367Z,67.30
2022-10-11T17:02:19.516Z,67.70
2022-10-11T17:04:47.637Z,68.20
2022-10-11T17:07:15.960Z,68.40
2022-10-11T17:09:45.018Z,69.00
2022-10-11T17:12:13.531Z,69.20
2022-10-11T17:14:42.042Z,69.50
2022-10-11T17:17:10.735Z,69.70
2022-10-11T17:19:45.014Z,69.80
2022-10-11T17:22:14.840Z,70.10
2022-10-11T17:24:43.306Z,70.20
2022-10-11T17:27:11.198Z,70.20
2022-10-11T17:29:39.132Z,70.40
2022-10-11T17:32:07.257Z,70.50
2022-10-11T17:34:35.656Z,70.60
2022-10-11T17:37:05.097Z,70.70
2022-10-11T17:39:34.058Z,70.80
2022-10-11T17:42:07.312Z,70.90
2022-10-11T17:44:36.036Z,71.00
2022-10-11T17:47:04.543Z,71.00
2022-10-11T17:49:33.017Z,71.50
2022-10-11T17:52:00.998Z,71.90
2022-10-11T17:54:30.252Z,72.10
2022-10-11T17:56:58.412Z,72.40
2022-10-11T17:59:28.783Z,73.00
2022-10-11T18:01:56.922Z,73.40
2022-10-11T18:04:27.024Z,73.80
2022-10-11T18:06:55.217Z,74.10
2022-10-11T18:09:23.830Z,74.50
2022-10-11T18:11:53.179Z,75.30
2022-10-11T18:14:21.268Z,75.30
2022-10-11T18:16:49.367Z,75.50
2022-10-11T18:19:17.466Z,75.70
2022-10-11T18:21:45.530Z,76.00
2022-10-11T18:24:15.850Z,76.10
2022-10-11T18:26:44.617Z,76.50
2022-10-11T18:29:14.441Z,76.60
2022-10-11T18:31:42.847Z,77.00
2022-10-11T18:34:11.431Z,77.30
2022-10-11T18:36:39.995Z,77.40
2022-10-11T18:39:09.660Z,77.70
2022-10-11T18:41:39.102Z,77.70
2022-10-11T18:44:08.521Z,77.70
2022-10-11T18:46:38.369Z,77.90
2022-10-11T18:49:06.886Z,78.00
2022-10-11T18:51:35.784Z,78.10
2022-10-11T18:54:04.345Z,78.30
2022-10-11T18:56:33.051Z,78.20
2022-10-11T18:59:01.355Z,78.30
2022-10-11T19:01:30.375Z,78.40
2022-10-11T19:04:00.582Z,78.30
2022-10-11T19:06:29.619Z,78.30
2022-10-11T19:09:00.777Z,78.40
2022-10-11T19:11:29.015Z,78.40
2022-10-11T19:13:57.824Z,78.60
2022-10-11T19:16:26.052Z,78.70
2022-10-11T19:18:54.864Z,78.80
2022-10-11T19:21:24.530Z,79.00
2022-10-11T19:23:52.989Z,79.00
2022-10-11T19:26:21.860Z,79.10
2022-10-11T19:28:54.927Z,79.20
2022-10-11T19:31:23.298Z,79.00
2022-10-11T19:33:51.235Z,79.00
2022-10-11T19:36:19.880Z,79.20
2022-10-11T19:38:50.777Z,79.30
2022-10-11T19:41:20.115Z,79.40
2022-10-11T19:43:48.426Z,79.50
2022-10-11T19:46:27.313Z,79.70
2022-10-11T19:49:05.524Z,79.60
2022-10-11T19:51:35.106Z,79.60
2022-10-11T19:54:06.186Z,79.60
2022-10-11T19:56:35.043Z,79.60
2022-10-11T19:59:03.427Z,79.70
2022-10-11T20:01:31.982Z,79.70
2022-10-11T20:04:01.059Z,79.70
2022-10-11T20:06:31.652Z,79.70
2022-10-11T20:09:27.594Z,79.80
2022-10-11T20:11:52.085Z,79.80
2022-10-11T20:14:20.465Z,79.80
2022-10-11T20:16:50.212Z,79.80
2022-10-11T20:19:18.747Z,80.10
2022-10-11T20:21:46.676Z,80.00
2022-10-11T20:24:16.150Z,80.00
2022-10-11T20:26:44.139Z,79.90
2022-10-11T20:29:12.103Z,80.00
2022-10-11T20:31:40.809Z,80.30
2022-10-11T20:34:08.886Z,80.30
2022-10-11T20:36:36.894Z,80.40
2022-10-11T20:39:05.246Z,80.50
2022-10-11T20:41:37.341Z,80.60
2022-10-11T20:44:05.687Z,80.80
2022-10-11T20:46:35.034Z,80.90
2022-10-11T20:49:04.444Z,80.80
2022-10-11T20:51:33.823Z,80.70
2022-10-11T20:54:02.233Z,80.70
2022-10-11T20:56:31.124Z,80.50
2022-10-11T20:59:00.494Z,80.80
2022-10-11T21:01:29.073Z,81.00
2022-10-11T21:03:57.953Z,81.10
2022-10-11T21:06:27.201Z,81.10
2022-10-11T21:08:55.689Z,81.30
2022-10-11T21:11:25.446Z,81.20
2022-10-11T21:13:54.915Z,81.50
2022-10-11T21:16:24.182Z,81.20
2022-10-11T21:18:52.744Z,81.50
2022-10-11T21:21:21.107Z,81.70
2022-10-11T21:23:48.989Z,81.60
2022-10-11T21:26:18.745Z,81.40
2022-10-11T21:28:46.979Z,81.40
2022-10-11T21:31:15.810Z,81.30
2022-10-11T21:33:45.514Z,81.40
2022-10-11T21:36:14.296Z,81.50
2022-10-11T21:38:42.663Z,81.60
2022-10-11T21:41:12.610Z,81.80
2022-10-11T21:43:40.572Z,81.80
2022-10-11T21:46:09.377Z,81.90
2022-10-11T21:48:37.239Z,81.90
2022-10-11T21:51:06.719Z,82.00
2022-10-11T21:53:34.729Z,81.90
2022-10-11T21:56:02.778Z,82.00
2022-10-11T21:58:30.698Z,82.00
2022-10-11T22:00:58.715Z,82.00
2022-10-11T22:03:26.646Z,82.00
2022-10-11T22:05:54.628Z,82.20
2022-10-11T22:08:24.102Z,82.20
2022-10-11T22:10:54.546Z,82.20
2022-10-11T22:13:22.489Z,82.10
2022-10-11T22:15:50.599Z,82.10
2022-10-11T22:18:18.683Z,82.30
2022-10-11T22:20:46.555Z,82.60
2022-10-11T22:23:14.564Z,82.70
2022-10-11T22:25:43.805Z,82.70
2022-10-11T22:28:15.827Z,82.70
2022-10-11T22:30:43.768Z,82.70
2022-10-11T22:33:11.699Z,82.80
2022-10-11T22:35:39.533Z,82.70
2022-10-11T22:38:07.651Z,82.70
2022-10-11T22:40:35.630Z,82.80
2022-10-11T22:43:04.894Z,82.70
2022-10-11T22:45:32.796Z,82.90
2022-10-11T22:48:00.662Z,82.60
2022-10-11T22:50:28.524Z,82.80
2022-10-11T22:52:56.370Z,83.00
2022-10-11T22:55:25.886Z,82.90
2022-10-11T22:57:53.990Z,82.80
2022-10-11T23:00:23.288Z,82.80
2022-10-11T23:02:51.263Z,82.70
2022-10-11T23:05:19.120Z,82.60
2022-10-11T23:07:47.098Z,82.60
2022-10-11T23:10:15.154Z,82.60
2022-10-11T23:12:43.409Z,82.60
2022-10-11T23:15:11.768Z,82.50
2022-10-11T23:17:41.090Z,82.60
2022-10-11T23:20:09.332Z,82.70
2022-10-11T23:22:37.184Z,82.80
2022-10-11T23:25:05.465Z,82.70
2022-10-11T23:27:33.390Z,82.70
2022-10-11T23:30:01.308Z,82.90
2022-10-11T23:32:29.264Z,83.10
2022-10-11T23:34:58.423Z,83.10
2022-10-11T23:37:26.672Z,83.00
2022-10-11T23:39:54.499Z,83.10
2022-10-11T23:42:22.289Z,83.10
2022-10-11T23:44:51.935Z,83.00
2022-10-11T23:47:19.890Z,83.10
2022-10-11T23:49:52.312Z,83.10
2022-10-11T23:52:22.425Z,83.00
2022-10-11T23:54:50.206Z,83.00
2022-10-11T23:57:18.034Z,83.00
2022-10-11T23:59:45.886Z,82.80
